sensor_id;sensor_type;location;lat;lon;timestamp;pressure;altitude;pressure_sealevel;temperature;humidity
6567;BME280;3317;43.994;22.878;2023-01-05T00:01:50;101997.28;;;10.49;65.76
6567;BME280;3317;43.994;22.878;2023-01-05T00:04:17;101993.09;;;10.45;66.86
6567;BME280;3317;43.994;22.878;2023-01-05T00:06:46;101996.97;;;10.40;66.63
6567;BME280;3317;43.994;22.878;2023-01-05T00:09:16;101994.53;;;10.37;65.92
6567;BME280;3317;43.994;22.878;2023-01-05T00:11:43;101984.78;;;10.35;65.76
6567;BME280;3317;43.994;22.878;2023-01-05T00:14:29;101989.59;;;10.31;66.03
6567;BME280;3317;43.994;22.878;2023-01-05T00:17:16;101968.28;;;10.15;66.53
6567;BME280;3317;43.994;22.878;2023-01-05T00:20:00;101977.88;;;10.19;66.92
6567;BME280;3317;43.994;22.878;2023-01-05T00:22:48;101970.84;;;10.05;67.01
6567;BME280;3317;43.994;22.878;2023-01-05T00:25:17;101968.75;;;10.09;66.64
6567;BME280;3317;43.994;22.878;2023-01-05T00:27:45;101970.84;;;10.05;66.50
6567;BME280;3317;43.994;22.878;2023-01-05T00:30:16;101964.66;;;10.03;66.58
6567;BME280;3317;43.994;22.878;2023-01-05T00:32:43;101956.69;;;10.02;66.31
6567;BME280;3317;43.994;22.878;2023-01-05T00:35:13;101953.22;;;9.99;66.61
6567;BME280;3317;43.994;22.878;2023-01-05T00:37:40;101949.66;;;9.99;66.45
6567;BME280;3317;43.994;22.878;2023-01-05T00:40:10;101953.69;;;9.93;66.20
6567;BME280;3317;43.994;22.878;2023-01-05T00:42:38;101969.94;;;9.93;66.01
6567;BME280;3317;43.994;22.878;2023-01-05T00:45:07;101959.25;;;9.92;65.93
6567;BME280;3317;43.994;22.878;2023-01-05T00:47:34;101952.22;;;9.89;65.70
6567;BME280;3317;43.994;22.878;2023-01-05T00:50:01;101953.31;;;9.86;65.69
6567;BME280;3317;43.994;22.878;2023-01-05T00:52:28;101954.53;;;9.82;65.72
6567;BME280;3317;43.994;22.878;2023-01-05T00:54:55;101955.78;;;9.78;65.22
6567;BME280;3317;43.994;22.878;2023-01-05T00:57:24;101962.03;;;9.79;66.00
6567;BME280;3317;43.994;22.878;2023-01-05T00:59:51;101962.28;;;9.76;66.54
6567;BME280;3317;43.994;22.878;2023-01-05T01:02:18;101957.31;;;9.69;66.62
6567;BME280;3317;43.994;22.878;2023-01-05T01:04:45;101961.16;;;9.67;66.68
6567;BME280;3317;43.994;22.878;2023-01-05T01:07:12;101952.28;;;9.65;66.97
6567;BME280;3317;43.994;22.878;2023-01-05T01:09:39;101949.78;;;9.62;67.18
6567;BME280;3317;43.994;22.878;2023-01-05T01:12:06;101944.53;;;9.60;66.93
6567;BME280;3317;43.994;22.878;2023-01-05T01:14:34;101938.34;;;9.58;67.06
6567;BME280;3317;43.994;22.878;2023-01-05T01:17:01;101935.75;;;9.56;67.04
6567;BME280;3317;43.994;22.878;2023-01-05T01:19:28;101926.03;;;9.54;67.01
6567;BME280;3317;43.994;22.878;2023-01-05T01:21:55;101918.88;;;9.53;67.04
6567;BME280;3317;43.994;22.878;2023-01-05T01:24:23;101910.28;;;9.48;67.17
6567;BME280;3317;43.994;22.878;2023-01-05T01:26:52;101896.69;;;9.36;66.96
6567;BME280;3317;43.994;22.878;2023-01-05T01:29:20;101899.91;;;9.41;67.25
6567;BME280;3317;43.994;22.878;2023-01-05T01:31:50;101894.50;;;9.41;66.96
6567;BME280;3317;43.994;22.878;2023-01-05T01:34:17;101878.84;;;9.34;66.77
6567;BME280;3317;43.994;22.878;2023-01-05T01:36:44;101875.91;;;9.37;66.57
6567;BME280;3317;43.994;22.878;2023-01-05T01:39:11;101843.69;;;9.34;67.19
6567;BME280;3317;43.994;22.878;2023-01-05T01:41:39;101839.38;;;9.31;67.01
6567;BME280;3317;43.994;22.878;2023-01-05T01:47:08;101827.81;;;9.29;65.75
6567;BME280;3317;43.994;22.878;2023-01-05T01:49:39;101821.66;;;9.27;64.90
6567;BME280;3317;43.994;22.878;2023-01-05T01:52:06;101813.78;;;9.24;64.78
6567;BME280;3317;43.994;22.878;2023-01-05T01:54:34;101812.16;;;9.21;64.96
6567;BME280;3317;43.994;22.878;2023-01-05T01:57:01;101814.38;;;9.16;65.21
6567;BME280;3317;43.994;22.878;2023-01-05T01:59:29;101820.78;;;9.15;65.54
6567;BME280;3317;43.994;22.878;2023-01-05T02:01:59;101820.13;;;9.11;66.42
6567;BME280;3317;43.994;22.878;2023-01-05T02:04:28;101821.84;;;9.12;66.32
6567;BME280;3317;43.994;22.878;2023-01-05T02:06:57;101808.19;;;9.02;66.29
6567;BME280;3317;43.994;22.878;2023-01-05T02:09:24;101817.44;;;9.11;66.74
6567;BME280;3317;43.994;22.878;2023-01-05T02:11:58;101797.03;;;9.07;66.95
6567;BME280;3317;43.994;22.878;2023-01-05T02:14:35;101794.31;;;9.07;66.67
6567;BME280;3317;43.994;22.878;2023-01-05T02:17:12;101785.69;;;9.02;66.30
6567;BME280;3317;43.994;22.878;2023-01-05T02:20:06;101788.13;;;9.05;66.50
6567;BME280;3317;43.994;22.878;2023-01-05T02:26:12;101780.53;;;8.99;66.56
6567;BME280;3317;43.994;22.878;2023-01-05T02:29:01;101789.72;;;8.96;65.58
6567;BME280;3317;43.994;22.878;2023-01-05T02:31:35;101782.47;;;8.97;65.48
6567;BME280;3317;43.994;22.878;2023-01-05T02:34:08;101783.56;;;8.94;65.74
6567;BME280;3317;43.994;22.878;2023-01-05T02:36:45;101769.31;;;8.92;66.20
6567;BME280;3317;43.994;22.878;2023-01-05T02:39:16;101772.13;;;8.91;66.23
6567;BME280;3317;43.994;22.878;2023-01-05T02:41:47;101776.78;;;8.88;66.10
6567;BME280;3317;43.994;22.878;2023-01-05T02:44:16;101782.44;;;8.85;65.70
6567;BME280;3317;43.994;22.878;2023-01-05T02:46:46;101767.31;;;8.83;66.40
6567;BME280;3317;43.994;22.878;2023-01-05T02:49:14;101787.09;;;8.83;65.92
6567;BME280;3317;43.994;22.878;2023-01-05T02:51:45;101785.38;;;8.82;66.26
6567;BME280;3317;43.994;22.878;2023-01-05T02:54:20;101794.47;;;8.81;65.39
6567;BME280;3317;43.994;22.878;2023-01-05T02:56:51;101790.16;;;8.79;65.15
6567;BME280;3317;43.994;22.878;2023-01-05T02:59:24;101781.50;;;8.73;65.43
6567;BME280;3317;43.994;22.878;2023-01-05T03:01:57;101782.28;;;8.76;65.44
6567;BME280;3317;43.994;22.878;2023-01-05T03:04:28;101709.81;;;8.32;65.32
6567;BME280;3317;43.994;22.878;2023-01-05T03:06:59;101774.50;;;8.71;65.33
6567;BME280;3317;43.994;22.878;2023-01-05T03:09:29;101765.78;;;8.67;65.48
6567;BME280;3317;43.994;22.878;2023-01-05T03:12:07;101761.44;;;8.65;65.17
6567;BME280;3317;43.994;22.878;2023-01-05T03:14:54;101750.13;;;8.59;65.33
6567;BME280;3317;43.994;22.878;2023-01-05T03:17:27;101745.72;;;8.58;65.86
6567;BME280;3317;43.994;22.878;2023-01-05T03:19:56;101742.28;;;8.56;65.35
6567;BME280;3317;43.994;22.878;2023-01-05T03:22:26;101738.81;;;8.54;65.54
6567;BME280;3317;43.994;22.878;2023-01-05T03:25:14;101741.63;;;8.53;65.18
6567;BME280;3317;43.994;22.878;2023-01-05T03:27:59;101737.31;;;8.50;64.73
6567;BME280;3317;43.994;22.878;2023-01-05T03:30:50;101743.78;;;8.48;64.71
6567;BME280;3317;43.994;22.878;2023-01-05T03:33:43;101747.81;;;8.42;65.68
6567;BME280;3317;43.994;22.878;2023-01-05T03:36:32;101742.28;;;8.43;65.42
6567;BME280;3317;43.994;22.878;2023-01-05T03:39:04;101739.72;;;8.42;65.44
6567;BME280;3317;43.994;22.878;2023-01-05T03:41:34;101731.97;;;8.37;65.51
6567;BME280;3317;43.994;22.878;2023-01-05T03:44:02;101740.16;;;8.36;65.37
6567;BME280;3317;43.994;22.878;2023-01-05T03:46:29;101731.75;;;8.27;65.81
6567;BME280;3317;43.994;22.878;2023-01-05T03:48:58;101736.16;;;8.17;66.58
6567;BME280;3317;43.994;22.878;2023-01-05T03:51:24;101728.47;;;8.11;66.98
6567;BME280;3317;43.994;22.878;2023-01-05T03:53:51;101723.31;;;8.08;66.98
6567;BME280;3317;43.994;22.878;2023-01-05T03:56:18;101723.56;;;8.05;66.85
6567;BME280;3317;43.994;22.878;2023-01-05T03:58:45;101711.97;;;8.02;66.86
6567;BME280;3317;43.994;22.878;2023-01-05T04:01:12;101715.66;;;8.01;66.70
6567;BME280;3317;43.994;22.878;2023-01-05T04:03:39;101711.38;;;7.99;67.26
6567;BME280;3317;43.994;22.878;2023-01-05T04:06:08;101698.84;;;7.98;67.12
6567;BME280;3317;43.994;22.878;2023-01-05T04:08:35;101685.44;;;7.96;65.81
6567;BME280;3317;43.994;22.878;2023-01-05T04:11:13;101683.81;;;7.94;66.05
6567;BME280;3317;43.994;22.878;2023-01-05T04:13:41;101669.72;;;7.90;65.95
6567;BME280;3317;43.994;22.878;2023-01-05T04:16:08;101671.78;;;7.86;65.24
6567;BME280;3317;43.994;22.878;2023-01-05T04:18:35;101674.25;;;7.89;65.07
6567;BME280;3317;43.994;22.878;2023-01-05T04:21:02;101671.66;;;7.88;65.21
6567;BME280;3317;43.994;22.878;2023-01-05T04:23:31;101666.59;;;7.83;65.08
6567;BME280;3317;43.994;22.878;2023-01-05T04:25:58;101663.13;;;7.81;64.22
6567;BME280;3317;43.994;22.878;2023-01-05T04:28:25;101657.88;;;7.80;65.10
6567;BME280;3317;43.994;22.878;2023-01-05T04:30:53;101652.47;;;7.80;64.78
6567;BME280;3317;43.994;22.878;2023-01-05T04:33:22;101644.66;;;7.64;64.18
6567;BME280;3317;43.994;22.878;2023-01-05T04:35:49;101638.84;;;7.57;64.97
6567;BME280;3317;43.994;22.878;2023-01-05T04:38:16;101661.72;;;7.64;66.25
6567;BME280;3317;43.994;22.878;2023-01-05T04:40:48;101667.84;;;7.66;66.34
6567;BME280;3317;43.994;22.878;2023-01-05T04:43:16;101659.09;;;7.63;66.41
6567;BME280;3317;43.994;22.878;2023-01-05T04:45:45;101656.41;;;7.63;66.43
6567;BME280;3317;43.994;22.878;2023-01-05T04:48:12;101648.31;;;7.63;66.58
6567;BME280;3317;43.994;22.878;2023-01-05T04:50:40;101641.19;;;7.61;66.87
6567;BME280;3317;43.994;22.878;2023-01-05T04:53:07;101637.63;;;7.61;66.15
6567;BME280;3317;43.994;22.878;2023-01-05T04:55:34;101632.13;;;7.63;64.87
6567;BME280;3317;43.994;22.878;2023-01-05T04:58:03;101629.75;;;7.58;63.99
6567;BME280;3317;43.994;22.878;2023-01-05T05:00:30;101631.72;;;7.56;64.36
6567;BME280;3317;43.994;22.878;2023-01-05T05:02:57;101632.78;;;7.53;64.18
6567;BME280;3317;43.994;22.878;2023-01-05T05:05:24;101629.34;;;7.51;64.55
6567;BME280;3317;43.994;22.878;2023-01-05T05:07:51;101629.44;;;7.50;64.34
6567;BME280;3317;43.994;22.878;2023-01-05T05:10:18;101619.88;;;7.45;64.94
6567;BME280;3317;43.994;22.878;2023-01-05T05:12:45;101637.78;;;7.46;66.02
6567;BME280;3317;43.994;22.878;2023-01-05T05:15:13;101626.47;;;7.41;66.35
6567;BME280;3317;43.994;22.878;2023-01-05T05:17:40;101638.00;;;7.43;66.15
6567;BME280;3317;43.994;22.878;2023-01-05T05:20:08;101621.81;;;7.43;65.90
6567;BME280;3317;43.994;22.878;2023-01-05T05:22:35;101613.66;;;7.32;66.83
6567;BME280;3317;43.994;22.878;2023-01-05T05:25:02;101623.78;;;7.41;66.66
6567;BME280;3317;43.994;22.878;2023-01-05T05:27:30;101608.03;;;7.35;66.14
6567;BME280;3317;43.994;22.878;2023-01-05T05:29:57;101610.53;;;7.38;64.99
6567;BME280;3317;43.994;22.878;2023-01-05T05:32:25;101610.06;;;7.31;64.87
6567;BME280;3317;43.994;22.878;2023-01-05T05:34:52;101616.09;;;7.35;66.10
6567;BME280;3317;43.994;22.878;2023-01-05T05:37:19;101610.94;;;7.32;66.47
6567;BME280;3317;43.994;22.878;2023-01-05T05:39:46;101606.84;;;7.26;67.54
6567;BME280;3317;43.994;22.878;2023-01-05T05:42:13;101605.25;;;7.24;67.57
6567;BME280;3317;43.994;22.878;2023-01-05T05:44:40;101579.94;;;7.13;66.70
6567;BME280;3317;43.994;22.878;2023-01-05T05:47:07;101582.91;;;7.22;64.48
6567;BME280;3317;43.994;22.878;2023-01-05T05:49:36;101588.53;;;7.18;65.21
6567;BME280;3317;43.994;22.878;2023-01-05T05:52:03;101576.28;;;7.14;65.09
6567;BME280;3317;43.994;22.878;2023-01-05T05:54:30;101583.16;;;7.05;65.64
6567;BME280;3317;43.994;22.878;2023-01-05T05:56:57;101576.28;;;7.01;66.83
6567;BME280;3317;43.994;22.878;2023-01-05T05:59:24;101577.06;;;6.90;67.63
6567;BME280;3317;43.994;22.878;2023-01-05T06:01:51;101568.53;;;6.71;68.46
6567;BME280;3317;43.994;22.878;2023-01-05T06:04:18;101571.34;;;6.69;68.68
6567;BME280;3317;43.994;22.878;2023-01-05T06:06:46;101572.41;;;6.67;69.07
6567;BME280;3317;43.994;22.878;2023-01-05T06:09:13;101568.00;;;6.66;68.64
6567;BME280;3317;43.994;22.878;2023-01-05T06:11:40;101557.22;;;6.66;67.58
6567;BME280;3317;43.994;22.878;2023-01-05T06:14:10;101567.25;;;6.64;68.02
6567;BME280;3317;43.994;22.878;2023-01-05T06:16:37;101567.25;;;6.64;67.96
6567;BME280;3317;43.994;22.878;2023-01-05T06:19:04;101560.91;;;6.65;68.39
6567;BME280;3317;43.994;22.878;2023-01-05T06:21:31;101561.88;;;6.64;68.86
6567;BME280;3317;43.994;22.878;2023-01-05T06:23:59;101542.88;;;6.65;68.46
6567;BME280;3317;43.994;22.878;2023-01-05T06:26:26;101540.97;;;6.67;67.64
6567;BME280;3317;43.994;22.878;2023-01-05T06:28:53;101548.94;;;6.69;68.43
6567;BME280;3317;43.994;22.878;2023-01-05T06:31:20;101545.38;;;6.68;68.29
6567;BME280;3317;43.994;22.878;2023-01-05T06:33:47;101539.00;;;6.56;69.09
6567;BME280;3317;43.994;22.878;2023-01-05T06:36:14;101548.72;;;6.59;69.50
6567;BME280;3317;43.994;22.878;2023-01-05T06:38:41;101559.28;;;6.49;69.49
6567;BME280;3317;43.994;22.878;2023-01-05T06:41:09;101558.72;;;6.31;69.81
6567;BME280;3317;43.994;22.878;2023-01-05T06:43:36;101565.34;;;6.12;70.30
6567;BME280;3317;43.994;22.878;2023-01-05T06:46:03;101558.72;;;5.90;70.98
6567;BME280;3317;43.994;22.878;2023-01-05T06:48:30;101559.72;;;5.75;71.38
6567;BME280;3317;43.994;22.878;2023-01-05T06:50:57;101554.09;;;5.65;71.92
6567;BME280;3317;43.994;22.878;2023-01-05T06:53:24;101553.03;;;5.68;72.24
6567;BME280;3317;43.994;22.878;2023-01-05T06:55:51;101546.47;;;5.72;72.40
6567;BME280;3317;43.994;22.878;2023-01-05T06:58:20;101553.28;;;5.77;72.50
6567;BME280;3317;43.994;22.878;2023-01-05T07:00:47;101544.16;;;5.80;72.94
6567;BME280;3317;43.994;22.878;2023-01-05T07:03:14;101536.41;;;5.88;72.53
6567;BME280;3317;43.994;22.878;2023-01-05T07:05:41;101518.03;;;5.95;72.61
6567;BME280;3317;43.994;22.878;2023-01-05T07:08:07;101527.03;;;6.09;72.89
6567;BME280;3317;43.994;22.878;2023-01-05T07:10:34;101516.72;;;6.15;72.34
6567;BME280;3317;43.994;22.878;2023-01-05T07:13:02;101504.63;;;6.21;72.51
6567;BME280;3317;43.994;22.878;2023-01-05T07:15:30;101511.34;;;6.28;72.30
6567;BME280;3317;43.994;22.878;2023-01-05T07:17:57;101516.41;;;6.33;72.62
6567;BME280;3317;43.994;22.878;2023-01-05T07:20:24;101510.78;;;6.36;72.44
6567;BME280;3317;43.994;22.878;2023-01-05T07:22:52;101492.50;;;6.41;72.54
6567;BME280;3317;43.994;22.878;2023-01-05T07:25:19;101493.78;;;6.48;72.13
6567;BME280;3317;43.994;22.878;2023-01-05T07:27:49;101486.22;;;6.54;72.09
6567;BME280;3317;43.994;22.878;2023-01-05T07:30:17;101491.94;;;6.62;72.07
6567;BME280;3317;43.994;22.878;2023-01-05T07:32:45;101480.72;;;6.68;71.40
6567;BME280;3317;43.994;22.878;2023-01-05T07:35:12;101482.00;;;6.75;71.48
6567;BME280;3317;43.994;22.878;2023-01-05T07:37:39;101484.59;;;6.77;71.72
6567;BME280;3317;43.994;22.878;2023-01-05T07:40:09;101483.41;;;6.81;71.82
6567;BME280;3317;43.994;22.878;2023-01-05T07:42:36;101484.03;;;6.85;72.02
6567;BME280;3317;43.994;22.878;2023-01-05T07:45:03;101488.97;;;6.91;71.71
6567;BME280;3317;43.994;22.878;2023-01-05T07:47:31;101493.94;;;6.84;72.28
6567;BME280;3317;43.994;22.878;2023-01-05T07:49:59;101483.28;;;6.83;70.96
6567;BME280;3317;43.994;22.878;2023-01-05T07:52:27;101482.41;;;6.82;70.47
6567;BME280;3317;43.994;22.878;2023-01-05T07:54:54;101471.78;;;6.81;69.69
6567;BME280;3317;43.994;22.878;2023-01-05T07:57:22;101478.97;;;6.80;69.46
6567;BME280;3317;43.994;22.878;2023-01-05T07:59:49;101475.97;;;6.72;69.59
6567;BME280;3317;43.994;22.878;2023-01-05T08:02:16;101466.16;;;6.71;69.64
6567;BME280;3317;43.994;22.878;2023-01-05T08:04:43;101479.63;;;6.71;69.30
6567;BME280;3317;43.994;22.878;2023-01-05T08:07:11;101476.53;;;6.64;69.72
6567;BME280;3317;43.994;22.878;2023-01-05T08:09:40;101474.28;;;6.58;70.50
6567;BME280;3317;43.994;22.878;2023-01-05T08:12:24;101463.50;;;6.45;70.77
6567;BME280;3317;43.994;22.878;2023-01-05T08:14:51;101467.50;;;6.39;71.59
6567;BME280;3317;43.994;22.878;2023-01-05T08:17:18;101467.06;;;6.32;72.15
6567;BME280;3317;43.994;22.878;2023-01-05T08:19:45;101467.28;;;6.29;72.82
6567;BME280;3317;43.994;22.878;2023-01-05T08:22:13;101478.28;;;6.26;73.30
6567;BME280;3317;43.994;22.878;2023-01-05T08:24:40;101469.31;;;6.26;73.96
6567;BME280;3317;43.994;22.878;2023-01-05T08:27:07;101462.13;;;6.26;74.91
6567;BME280;3317;43.994;22.878;2023-01-05T08:29:35;101452.00;;;6.30;75.43
6567;BME280;3317;43.994;22.878;2023-01-05T08:32:03;101449.19;;;6.31;75.84
6567;BME280;3317;43.994;22.878;2023-01-05T08:34:30;101454.56;;;6.31;76.36
6567;BME280;3317;43.994;22.878;2023-01-05T08:36:57;101390.31;;;6.14;76.26
6567;BME280;3317;43.994;22.878;2023-01-05T08:39:25;101422.22;;;6.57;76.56
6567;BME280;3317;43.994;22.878;2023-01-05T08:41:52;101415.72;;;6.73;76.42
6567;BME280;3317;43.994;22.878;2023-01-05T08:44:19;101408.25;;;6.89;76.36
6567;BME280;3317;43.994;22.878;2023-01-05T08:46:46;101405.06;;;7.09;75.98
6567;BME280;3317;43.994;22.878;2023-01-05T08:49:13;101404.59;;;7.15;75.92
6567;BME280;3317;43.994;22.878;2023-01-05T08:51:40;101405.63;;;7.25;75.29
6567;BME280;3317;43.994;22.878;2023-01-05T08:54:07;101397.47;;;7.38;75.15
6567;BME280;3317;43.994;22.878;2023-01-05T08:56:35;101390.91;;;7.54;74.81
6567;BME280;3317;43.994;22.878;2023-01-05T08:59:02;101389.44;;;7.61;74.66
6567;BME280;3317;43.994;22.878;2023-01-05T09:01:29;101388.84;;;7.69;74.00
6567;BME280;3317;43.994;22.878;2023-01-05T09:03:56;101396.84;;;7.82;74.12
6567;BME280;3317;43.994;22.878;2023-01-05T09:06:23;101392.22;;;7.95;74.10
6567;BME280;3317;43.994;22.878;2023-01-05T09:08:50;101396.41;;;8.11;73.89
6567;BME280;3317;43.994;22.878;2023-01-05T09:11:18;101393.44;;;8.14;73.54
6567;BME280;3317;43.994;22.878;2023-01-05T09:13:49;101397.63;;;8.18;73.81
6567;BME280;3317;43.994;22.878;2023-01-05T09:16:18;101398.22;;;8.22;73.81
6567;BME280;3317;43.994;22.878;2023-01-05T09:18:45;101388.56;;;8.19;73.57
6567;BME280;3317;43.994;22.878;2023-01-05T09:21:13;101369.16;;;8.37;73.77
6567;BME280;3317;43.994;22.878;2023-01-05T09:23:40;101377.88;;;8.63;73.55
6567;BME280;3317;43.994;22.878;2023-01-05T09:26:09;101361.75;;;8.84;73.43
6567;BME280;3317;43.994;22.878;2023-01-05T09:28:36;101366.59;;;9.02;73.32
6567;BME280;3317;43.994;22.878;2023-01-05T09:31:10;101351.78;;;9.18;73.31
6567;BME280;3317;43.994;22.878;2023-01-05T09:33:37;101357.28;;;9.27;72.58
6567;BME280;3317;43.994;22.878;2023-01-05T09:36:05;101354.97;;;9.44;71.73
6567;BME280;3317;43.994;22.878;2023-01-05T09:38:32;101354.88;;;9.46;70.90
6567;BME280;3317;43.994;22.878;2023-01-05T09:41:03;101360.78;;;9.39;71.16
6567;BME280;3317;43.994;22.878;2023-01-05T09:43:35;101361.44;;;9.53;70.76
6567;BME280;3317;43.994;22.878;2023-01-05T09:46:03;101354.66;;;9.58;70.75
6567;BME280;3317;43.994;22.878;2023-01-05T09:48:38;101349.69;;;9.64;70.86
6567;BME280;3317;43.994;22.878;2023-01-05T09:51:07;101332.25;;;9.78;70.69
6567;BME280;3317;43.994;22.878;2023-01-05T09:53:35;101327.28;;;9.83;70.39
6567;BME280;3317;43.994;22.878;2023-01-05T09:56:03;101311.63;;;9.86;70.89
6567;BME280;3317;43.994;22.878;2023-01-05T09:58:36;101309.94;;;9.85;70.69
6567;BME280;3317;43.994;22.878;2023-01-05T10:01:08;101301.53;;;9.89;71.29
6567;BME280;3317;43.994;22.878;2023-01-05T10:03:42;101294.00;;;9.92;70.97
6567;BME280;3317;43.994;22.878;2023-01-05T10:06:14;101292.59;;;9.98;70.95
6567;BME280;3317;43.994;22.878;2023-01-05T10:08:43;101294.19;;;10.00;71.26
6567;BME280;3317;43.994;22.878;2023-01-05T10:11:14;101293.19;;;10.02;71.17
6567;BME280;3317;43.994;22.878;2023-01-05T10:14:05;101295.19;;;9.99;71.22
6567;BME280;3317;43.994;22.878;2023-01-05T10:16:34;101307.00;;;9.98;71.13
6567;BME280;3317;43.994;22.878;2023-01-05T10:19:02;101304.03;;;10.02;71.26
6567;BME280;3317;43.994;22.878;2023-01-05T10:21:37;101309.44;;;10.02;71.29
6567;BME280;3317;43.994;22.878;2023-01-05T10:24:18;101308.72;;;9.99;72.39
6567;BME280;3317;43.994;22.878;2023-01-05T10:26:52;101287.31;;;9.96;72.61
6567;BME280;3317;43.994;22.878;2023-01-05T10:29:25;101278.78;;;10.01;72.69
6567;BME280;3317;43.994;22.878;2023-01-05T10:31:55;101250.16;;;9.98;72.57
6567;BME280;3317;43.994;22.878;2023-01-05T10:34:39;101259.88;;;10.11;72.92
6567;BME280;3317;43.994;22.878;2023-01-05T10:37:45;101258.59;;;10.15;72.70
6567;BME280;3317;43.994;22.878;2023-01-05T10:40:23;101250.56;;;10.04;72.80
6567;BME280;3317;43.994;22.878;2023-01-05T10:43:07;101238.75;;;10.05;72.88
6567;BME280;3317;43.994;22.878;2023-01-05T10:45:36;101243.63;;;10.11;72.98
6567;BME280;3317;43.994;22.878;2023-01-05T10:48:10;101241.94;;;10.20;72.70
6567;BME280;3317;43.994;22.878;2023-01-05T10:50:41;101248.66;;;10.25;72.51
6567;BME280;3317;43.994;22.878;2023-01-05T10:53:11;101251.25;;;10.37;72.19
6567;BME280;3317;43.994;22.878;2023-01-05T10:55:49;101250.16;;;10.49;72.09
6567;BME280;3317;43.994;22.878;2023-01-05T10:58:25;101231.47;;;10.66;71.95
6567;BME280;3317;43.994;22.878;2023-01-05T11:00:54;101226.63;;;10.79;71.38
6567;BME280;3317;43.994;22.878;2023-01-05T11:03:28;101227.16;;;10.93;71.45
6567;BME280;3317;43.994;22.878;2023-01-05T11:06:00;101224.75;;;10.99;70.93
6567;BME280;3317;43.994;22.878;2023-01-05T11:08:28;101215.88;;;11.07;70.53
6567;BME280;3317;43.994;22.878;2023-01-05T11:10:57;101215.28;;;11.23;70.05
6567;BME280;3317;43.994;22.878;2023-01-05T11:13:33;101219.78;;;11.43;70.44
6567;BME280;3317;43.994;22.878;2023-01-05T11:16:07;101203.72;;;11.59;70.57
6567;BME280;3317;43.994;22.878;2023-01-05T11:18:41;101207.66;;;11.75;70.06
6567;BME280;3317;43.994;22.878;2023-01-05T11:21:15;101206.16;;;11.90;69.89
6567;BME280;3317;43.994;22.878;2023-01-05T11:23:43;101203.25;;;12.02;69.77
6567;BME280;3317;43.994;22.878;2023-01-05T11:26:32;101197.31;;;12.16;69.34
6567;BME280;3317;43.994;22.878;2023-01-05T11:29:13;101178.06;;;12.28;68.77
6567;BME280;3317;43.994;22.878;2023-01-05T11:31:48;101175.81;;;12.41;68.27
6567;BME280;3317;43.994;22.878;2023-01-05T11:34:24;101159.44;;;12.51;68.79
6567;BME280;3317;43.994;22.878;2023-01-05T11:36:55;101148.06;;;12.56;67.57
6567;BME280;3317;43.994;22.878;2023-01-05T11:39:29;101165.38;;;12.73;66.56
6567;BME280;3317;43.994;22.878;2023-01-05T11:42:17;101155.13;;;12.85;65.96
6567;BME280;3317;43.994;22.878;2023-01-05T11:44:47;101160.59;;;12.93;64.75
6567;BME280;3317;43.994;22.878;2023-01-05T11:47:33;101147.75;;;13.03;63.45
6567;BME280;3317;43.994;22.878;2023-01-05T11:50:04;101144.22;;;13.11;63.07
6567;BME280;3317;43.994;22.878;2023-01-05T11:52:35;101138.66;;;13.13;62.45
6567;BME280;3317;43.994;22.878;2023-01-05T11:55:26;101143.63;;;13.26;60.76
6567;BME280;3317;43.994;22.878;2023-01-05T11:58:12;101136.22;;;13.36;59.05
6567;BME280;3317;43.994;22.878;2023-01-05T12:01:00;101126.22;;;13.45;58.67
6567;BME280;3317;43.994;22.878;2023-01-05T12:03:42;101130.56;;;13.56;57.94
6567;BME280;3317;43.994;22.878;2023-01-05T12:06:24;101115.25;;;13.55;55.56
6567;BME280;3317;43.994;22.878;2023-01-05T12:09:04;101107.25;;;13.61;54.92
6567;BME280;3317;43.994;22.878;2023-01-05T12:11:39;101105.56;;;13.69;55.27
6567;BME280;3317;43.994;22.878;2023-01-05T12:14:19;101092.47;;;13.72;54.30
6567;BME280;3317;43.994;22.878;2023-01-05T12:16:53;101090.97;;;13.78;53.81
6567;BME280;3317;43.994;22.878;2023-01-05T12:22:51;101080.09;;;13.86;52.65
6567;BME280;3317;43.994;22.878;2023-01-05T12:25:34;101089.47;;;13.92;52.75
6567;BME280;3317;43.994;22.878;2023-01-05T12:28:17;101089.97;;;13.96;52.75
6567;BME280;3317;43.994;22.878;2023-01-05T12:30:56;101092.38;;;13.99;51.97
6567;BME280;3317;43.994;22.878;2023-01-05T12:33:42;101076.38;;;14.04;51.41
6567;BME280;3317;43.994;22.878;2023-01-05T12:36:28;101070.56;;;14.07;51.34
6567;BME280;3317;43.994;22.878;2023-01-05T12:39:23;101065.63;;;14.11;51.03
6567;BME280;3317;43.994;22.878;2023-01-05T12:42:16;101066.47;;;14.11;50.96
6567;BME280;3317;43.994;22.878;2023-01-05T12:44:59;101061.38;;;14.16;50.94
6567;BME280;3317;43.994;22.878;2023-01-05T12:47:44;101047.75;;;14.16;50.60
6567;BME280;3317;43.994;22.878;2023-01-05T12:50:26;101056.63;;;14.27;49.71
6567;BME280;3317;43.994;22.878;2023-01-05T12:52:58;101040.94;;;14.20;49.76
6567;BME280;3317;43.994;22.878;2023-01-05T12:55:30;101044.69;;;14.19;49.97
6567;BME280;3317;43.994;22.878;2023-01-05T12:58:05;101048.44;;;14.18;49.65
6567;BME280;3317;43.994;22.878;2023-01-05T13:00:37;101008.25;;;14.12;49.65
6567;BME280;3317;43.994;22.878;2023-01-05T13:03:15;101028.53;;;14.18;49.29
6567;BME280;3317;43.994;22.878;2023-01-05T13:05:47;101035.47;;;14.20;49.16
6567;BME280;3317;43.994;22.878;2023-01-05T13:08:19;101031.72;;;14.21;49.28
6567;BME280;3317;43.994;22.878;2023-01-05T13:10:50;101040.44;;;14.25;49.41
6567;BME280;3317;43.994;22.878;2023-01-05T13:13:24;101038.56;;;14.26;49.85
6567;BME280;3317;43.994;22.878;2023-01-05T13:15:57;101029.88;;;14.22;50.17
6567;BME280;3317;43.994;22.878;2023-01-05T13:18:26;101035.66;;;14.19;50.32
6567;BME280;3317;43.994;22.878;2023-01-05T13:20:56;101020.66;;;14.15;50.19
6567;BME280;3317;43.994;22.878;2023-01-05T13:23:27;101033.25;;;14.16;50.40
6567;BME280;3317;43.994;22.878;2023-01-05T13:25:58;101041.44;;;14.16;50.35
6567;BME280;3317;43.994;22.878;2023-01-05T13:28:28;101039.94;;;14.13;50.48
6567;BME280;3317;43.994;22.878;2023-01-05T13:31:20;101040.44;;;14.08;50.43
6567;BME280;3317;43.994;22.878;2023-01-05T13:37:00;101024.25;;;14.07;50.72
6567;BME280;3317;43.994;22.878;2023-01-05T13:39:45;101020.50;;;14.00;50.73
6567;BME280;3317;43.994;22.878;2023-01-05T13:42:35;101029.53;;;14.00;50.55